Time;durP1;ratioP1;P1;durP2;ratioP2;P2;SDS_P1;SDS_P2;PMS_P1;PMS_P2;Temp;Humidity;BMP_temperature;BMP_pressure;BME280_temperature;BME280_humidity;BME280_pressure;Samples;Min_cycle;Max_cycle;Signal;HPM_P1;HPM_P2
2022/05/18 00:01:52;;;;;;;;;;;;;;;22.66;50.93;101867.41;5032488;28;4399;-62
2022/05/18 00:04:18;;;;;;;;;;;;;;;22.66;50.84;101860.91;5032517;28;4257;-62
2022/05/18 00:06:45;;;;;;;;;;;;;;;22.66;50.41;101867.41;5035451;28;4266;-61
2022/05/18 00:09:11;;;;;;;;;;;;;;;22.65;50.61;101871.69;5032889;28;5453;-61
2022/05/18 00:11:38;;;;;;;;;;;;;;;22.66;50.75;101876.09;5035172;28;4280;-61
2022/05/18 00:14:04;;;;;;;;;;;;;;;22.65;50.66;101870.94;5030338;28;4249;-61
2022/05/18 00:16:35;;;;;;;;;;;;;;;22.65;50.88;101882.50;5029299;28;4201;-61
2022/05/18 00:19:04;;;;;;;;;;;;;;;22.63;50.68;101874.50;5031525;28;5414;-61
2022/05/18 00:21:33;;;;;;;;;;;;;;;22.65;50.35;101882.50;5034669;28;5204;-61
2022/05/18 00:23:59;;;;;;;;;;;;;;;22.64;50.50;101895.44;5026890;28;4048;-62
2022/05/18 00:26:26;;;;;;;;;;;;;;;22.63;50.74;101891.81;5035635;28;4252;-62
2022/05/18 00:28:52;;;;;;;;;;;;;;;22.63;50.62;101891.81;5033496;28;4268;-61
2022/05/18 00:31:19;;;;;;;;;;;;;;;22.63;50.56;101891.03;5026460;28;4414;-62
2022/05/18 00:33:46;;;;;;;;;;;;;;;22.62;50.56;101893.19;5030521;28;4323;-62
2022/05/18 00:36:12;;;;;;;;;;;;;;;22.61;50.57;101900.34;5031044;28;4570;-62
2022/05/18 00:38:38;;;;;;;;;;;;;;;22.65;50.38;101906.31;5033161;28;5330;-61
2022/05/18 00:41:05;;;;;;;;;;;;;;;22.65;50.04;101914.25;5033624;28;4258;-61
2022/05/18 00:43:31;;;;;;;;;;;;;;;22.67;50.13;101908.59;5028569;28;4314;-61
2022/05/18 00:45:58;;;;;;;;;;;;;;;22.67;49.89;101920.13;5029655;28;4241;-62
2022/05/18 00:48:24;;;;;;;;;;;;;;;22.66;50.43;101918.66;5031534;28;4301;-62
2022/05/18 00:50:51;;;;;;;;;;;;;;;22.66;50.39;101930.19;5033874;28;4081;-62
2022/05/18 00:53:22;;;;;;;;;;;;;;;22.65;50.24;101934.47;5027198;28;4725;-62
2022/05/18 00:55:49;;;;;;;;;;;;;;;22.64;50.17;101933.72;5032062;28;4066;-62
2022/05/18 00:58:17;;;;;;;;;;;;;;;22.65;49.96;101940.22;5035704;28;4381;-61
2022/05/18 01:00:43;;;;;;;;;;;;;;;22.63;49.91;101932.22;5028795;28;5377;-62
2022/05/18 01:03:13;;;;;;;;;;;;;;;22.64;49.81;101941.63;5030276;28;4126;-62
2022/05/18 01:05:40;;;;;;;;;;;;;;;22.65;50.04;101946.00;5032572;28;4401;-62
2022/05/18 01:08:06;;;;;;;;;;;;;;;22.65;49.91;101951.78;5027177;28;4100;-62
2022/05/18 01:10:33;;;;;;;;;;;;;;;22.64;50.12;101945.25;5031972;28;4187;-61
2022/05/18 01:13:02;;;;;;;;;;;;;;;22.65;49.71;101951.78;5027930;28;4252;-62
2022/05/18 01:15:29;;;;;;;;;;;;;;;22.65;49.82;101951.78;5032958;28;4216;-61
2022/05/18 01:17:58;;;;;;;;;;;;;;;22.63;49.96;101955.31;5027315;28;5282;-62
2022/05/18 01:20:26;;;;;;;;;;;;;;;22.63;49.76;101958.22;5033729;28;5222;-61
2022/05/18 01:22:56;;;;;;;;;;;;;;;22.53;49.89;101958.38;5021471;28;4106;-62
2022/05/18 01:25:31;;;;;;;;;;;;;;;22.50;49.77;101965.44;5033501;28;4054;-62
2022/05/18 01:27:58;;;;;;;;;;;;;;;22.50;50.08;101965.44;5028224;28;5297;-61
2022/05/18 01:30:24;;;;;;;;;;;;;;;22.50;49.88;101970.47;5026630;28;4381;-61
2022/05/18 01:32:52;;;;;;;;;;;;;;;22.49;49.91;101963.94;5032434;28;4305;-61
2022/05/18 01:35:19;;;;;;;;;;;;;;;22.48;50.26;101974.00;5033063;28;4047;-62
2022/05/18 01:37:47;;;;;;;;;;;;;;;22.48;50.06;101979.75;5033016;28;4372;-61
2022/05/18 01:40:17;;;;;;;;;;;;;;;22.48;49.86;101984.78;5033308;28;4252;-61
2022/05/18 01:42:49;;;;;;;;;;;;;;;22.47;49.83;101989.81;5032013;28;4387;-62
2022/05/18 01:45:15;;;;;;;;;;;;;;;22.47;49.89;101981.16;5031930;28;4252;-61
2022/05/18 01:47:42;;;;;;;;;;;;;;;22.47;49.97;101989.81;5030321;28;5248;-61
2022/05/18 01:50:09;;;;;;;;;;;;;;;22.46;49.65;101999.84;5033127;28;5305;-61
2022/05/18 01:52:36;;;;;;;;;;;;;;;22.47;49.73;101986.16;5034217;28;4061;-62
2022/05/18 01:55:03;;;;;;;;;;;;;;;22.46;49.64;101999.84;5030871;28;4250;-62
2022/05/18 01:57:33;;;;;;;;;;;;;;;22.46;49.88;101999.09;5033339;28;4316;-62
2022/05/18 02:00:00;;;;;;;;;;;;;;;22.48;49.63;102005.75;5029178;28;4705;-62
2022/05/18 02:02:26;;;;;;;;;;;;;;;22.46;49.81;101994.09;5035349;28;4159;-62
2022/05/18 02:04:53;;;;;;;;;;;;;;;22.46;49.66;101999.09;5034047;28;5369;-62
2022/05/18 02:07:19;;;;;;;;;;;;;;;22.45;49.84;102004.13;5029064;28;5349;-62
2022/05/18 02:09:45;;;;;;;;;;;;;;;22.50;49.65;102005.13;5029895;28;4271;-62
2022/05/18 02:12:13;;;;;;;;;;;;;;;22.51;49.33;102000.81;5031933;28;5269;-61
2022/05/18 02:14:39;;;;;;;;;;;;;;;22.51;49.43;102001.56;5033344;28;5239;-61
2022/05/18 02:17:05;;;;;;;;;;;;;;;22.50;49.32;101991.44;5033864;28;4419;-62
2022/05/18 02:19:32;;;;;;;;;;;;;;;22.50;49.44;101997.19;5032828;28;4211;-61
2022/05/18 02:21:58;;;;;;;;;;;;;;;22.50;49.50;102002.22;5031362;28;4363;-62
2022/05/18 02:24:24;;;;;;;;;;;;;;;22.49;49.45;101997.81;5029877;28;4228;-62
2022/05/18 02:26:51;;;;;;;;;;;;;;;22.49;49.45;101998.56;5033075;28;4165;-62
2022/05/18 02:29:18;;;;;;;;;;;;;;;22.49;49.42;101995.69;5028044;28;4314;-62
2022/05/18 02:31:44;;;;;;;;;;;;;;;22.48;49.28;101991.31;5033940;28;4461;-61
2022/05/18 02:34:11;;;;;;;;;;;;;;;22.48;49.17;101990.56;5031299;28;4195;-62
2022/05/18 02:36:38;;;;;;;;;;;;;;;22.48;49.31;101994.19;5032624;28;5322;-61
2022/05/18 02:39:04;;;;;;;;;;;;;;;22.48;49.14;101999.97;5031286;28;5345;-61
2022/05/18 02:41:30;;;;;;;;;;;;;;;22.47;49.16;101992.72;5029407;28;5561;-62
2022/05/18 02:43:58;;;;;;;;;;;;;;;22.48;48.99;102002.84;5025029;28;5397;-62
2022/05/18 02:46:24;;;;;;;;;;;;;;;22.49;49.17;101997.81;5028401;28;4293;-62
2022/05/18 02:48:51;;;;;;;;;;;;;;;22.50;49.23;102005.84;5027521;28;4275;-62
2022/05/18 02:51:17;;;;;;;;;;;;;;;22.52;48.85;102003.09;5025924;28;5355;-61
2022/05/18 02:53:44;;;;;;;;;;;;;;;22.53;48.86;101998.81;5027614;28;4353;-61
2022/05/18 02:56:11;;;;;;;;;;;;;;;22.53;49.11;102004.56;5031039;28;4258;-62
2022/05/18 02:58:42;;;;;;;;;;;;;;;22.53;48.99;102004.56;5030824;28;4486;-62
2022/05/18 03:01:09;;;;;;;;;;;;;;;22.54;49.14;102011.88;5031527;28;4229;-61
2022/05/18 03:03:36;;;;;;;;;;;;;;;22.54;48.75;102013.97;5034201;28;4714;-62
2022/05/18 03:06:03;;;;;;;;;;;;;;;22.54;48.96;102023.41;5030606;28;4247;-61
2022/05/18 03:08:30;;;;;;;;;;;;;;;22.54;49.05;102013.97;5029302;28;5231;-62
2022/05/18 03:10:56;;;;;;;;;;;;;;;22.54;48.83;102023.41;5027855;28;4233;-61
2022/05/18 03:13:23;;;;;;;;;;;;;;;22.54;48.97;102026.28;5026621;28;5268;-61
2022/05/18 03:15:49;;;;;;;;;;;;;;;22.53;48.76;102027.66;5033430;28;4270;-61
2022/05/18 03:18:16;;;;;;;;;;;;;;;22.53;48.77;102021.91;5029629;28;4114;-62
2022/05/18 03:23:33;;;;;;;;;;;;;;;22.53;48.78;102021.91;5031686;28;4214;-61
2022/05/18 03:26:00;;;;;;;;;;;;;;;22.53;48.90;102026.94;5031339;28;4068;-62
2022/05/18 03:28:26;;;;;;;;;;;;;;;22.52;48.65;102037.72;5032740;28;5227;-61
2022/05/18 03:30:53;;;;;;;;;;;;;;;22.50;48.67;102023.19;5031928;28;4246;-61
2022/05/18 03:33:19;;;;;;;;;;;;;;;22.51;48.70;102030.44;5029122;28;4290;-62
2022/05/18 03:35:46;;;;;;;;;;;;;;;22.51;48.57;102036.22;5027094;28;4035;-62
2022/05/18 03:38:12;;;;;;;;;;;;;;;22.50;48.73;102037.59;5033489;28;4243;-61
2022/05/18 03:40:41;;;;;;;;;;;;;;;22.51;48.66;102038.34;5017838;28;4346;-61
2022/05/18 03:43:08;;;;;;;;;;;;;;;22.51;48.41;102047.00;5029734;28;4245;-61
2022/05/18 03:45:34;;;;;;;;;;;;;;;22.50;48.50;102048.41;5025092;28;5336;-61
2022/05/18 03:48:01;;;;;;;;;;;;;;;22.50;48.45;102046.25;5030432;28;4185;-61
2022/05/18 03:50:28;;;;;;;;;;;;;;;22.49;48.50;102050.53;5014942;28;5271;-61
2022/05/18 03:52:55;;;;;;;;;;;;;;;22.49;48.40;102050.53;5027118;28;4072;-61
2022/05/18 03:55:21;;;;;;;;;;;;;;;22.48;48.38;102054.81;5032618;28;5364;-62
2022/05/18 03:57:48;;;;;;;;;;;;;;;22.48;48.35;102051.19;5030987;28;5245;-61
2022/05/18 04:00:15;;;;;;;;;;;;;;;22.47;48.34;102053.31;5035710;28;4084;-61
2022/05/18 04:02:42;;;;;;;;;;;;;;;22.47;48.20;102058.31;5032110;28;4191;-61
2022/05/18 04:05:09;;;;;;;;;;;;;;;22.48;48.43;102066.34;5027957;28;5450;-61
2022/05/18 04:07:36;;;;;;;;;;;;;;;22.47;48.31;102064.09;5026078;28;4238;-61
2022/05/18 04:10:02;;;;;;;;;;;;;;;22.46;48.21;102063.34;5029154;28;4247;-61
2022/05/18 04:12:29;;;;;;;;;;;;;;;22.46;48.49;102065.50;5026393;28;4182;-60
2022/05/18 04:14:55;;;;;;;;;;;;;;;22.47;48.48;102064.88;5029174;28;4271;-60
2022/05/18 04:17:22;;;;;;;;;;;;;;;22.47;48.15;102070.63;5030128;28;5286;-60
2022/05/18 04:19:48;;;;;;;;;;;;;;;22.47;48.20;102064.88;5028692;28;4314;-60
2022/05/18 04:22:14;;;;;;;;;;;;;;;22.45;48.43;102064.75;5021119;28;4173;-61
2022/05/18 04:24:41;;;;;;;;;;;;;;;22.46;48.45;102066.25;5028910;28;5292;-62
2022/05/18 04:27:07;;;;;;;;;;;;;;;22.45;48.75;102063.97;5032439;28;4212;-61
2022/05/18 04:29:33;;;;;;;;;;;;;;;22.44;48.48;102066.13;5028160;28;4218;-61
2022/05/18 04:32:04;;;;;;;;;;;;;;;22.44;48.43;102060.34;5024462;28;5647;-61
2022/05/18 04:34:31;;;;;;;;;;;;;;;22.44;48.61;102063.22;5025424;28;4222;-61
2022/05/18 04:36:57;;;;;;;;;;;;;;;22.43;48.33;102073.28;5019505;28;4136;-62
2022/05/18 04:39:23;;;;;;;;;;;;;;;22.44;48.45;102071.91;5029944;28;4213;-61
2022/05/18 04:41:50;;;;;;;;;;;;;;;22.44;48.54;102065.38;5026517;28;5458;-61
2022/05/18 04:44:16;;;;;;;;;;;;;;;22.43;48.32;102072.53;5023903;28;4232;-62
2022/05/18 04:46:42;;;;;;;;;;;;;;;22.43;48.10;102081.22;5024411;28;4411;-61
2022/05/18 04:49:12;;;;;;;;;;;;;;;22.43;48.40;102081.22;5030105;28;5425;-61
2022/05/18 04:51:38;;;;;;;;;;;;;;;22.45;48.63;102079.19;5027638;28;5393;-61
2022/05/18 04:54:05;;;;;;;;;;;;;;;22.47;48.38;102075.66;5022538;28;4248;-63
2022/05/18 04:56:31;;;;;;;;;;;;;;;22.44;48.82;102083.44;5021515;28;4072;-65
2022/05/18 04:58:58;;;;;;;;;;;;;;;22.49;48.95;102093.81;5027878;28;4261;-67
2022/05/18 05:01:24;;;;;;;;;;;;;;;22.45;48.81;102089.94;5025787;28;5284;-68
2022/05/18 05:03:51;;;;;;;;;;;;;;;22.42;47.23;102094.88;5028557;28;4191;-63
2022/05/18 05:06:17;;;;;;;;;;;;;;;22.27;44.80;102104.09;5023069;28;5253;-68
2022/05/18 05:08:43;;;;;;;;;;;;;;;22.30;44.38;102099.94;5034948;28;4312;-68
2022/05/18 05:11:10;;;;;;;;;;;;;;;22.32;44.16;102095.03;5033902;28;4176;-67
2022/05/18 05:13:36;;;;;;;;;;;;;;;22.32;44.63;102097.19;5031456;28;4251;-67
2022/05/18 05:16:04;;;;;;;;;;;;;;;22.34;45.75;102100.19;5036450;28;4131;-64
2022/05/18 05:18:30;;;;;;;;;;;;;;;22.35;45.76;102105.31;5035547;28;5224;-64
2022/05/18 05:20:57;;;;;;;;;;;;;;;22.35;45.09;102098.78;5036101;28;4370;-64
2022/05/18 05:23:24;;;;;;;;;;;;;;;22.34;44.74;102100.19;5032959;28;5391;-64
2022/05/18 05:25:51;;;;;;;;;;;;;;;22.32;42.65;102100.06;5031534;28;4114;-64
2022/05/18 05:28:17;;;;;;;;;;;;;;;22.30;42.56;102102.81;5032718;28;4199;-65
2022/05/18 05:30:44;;;;;;;;;;;;;;;22.28;41.85;102099.81;5035373;28;4074;-65
2022/05/18 05:33:11;;;;;;;;;;;;;;;22.25;41.33;102101.09;5037911;28;4136;-65
2022/05/18 05:35:41;;;;;;;;;;;;;;;22.25;41.19;102101.09;5034608;28;4170;-64
2022/05/18 05:38:08;;;;;;;;;;;;;;;22.25;41.16;102106.88;5036290;28;4435;-64
2022/05/18 05:40:34;;;;;;;;;;;;;;;22.22;41.12;102103.13;5036375;28;4482;-64
2022/05/18 05:43:07;;;;;;;;;;;;;;;22.20;40.64;102108.75;5032018;28;4374;-64
2022/05/18 05:45:34;;;;;;;;;;;;;;;22.19;40.47;102110.09;5032801;28;4241;-65
2022/05/18 05:48:01;;;;;;;;;;;;;;;22.18;40.28;102105.72;5031943;28;4162;-64
2022/05/18 05:50:27;;;;;;;;;;;;;;;22.17;39.69;102112.88;5033564;28;4127;-64
2022/05/18 05:52:53;;;;;;;;;;;;;;;22.16;39.60;102100.59;5028047;28;4200;-65
2022/05/18 05:55:20;;;;;;;;;;;;;;;22.17;39.46;102113.63;5034999;28;5331;-65
2022/05/18 05:57:47;;;;;;;;;;;;;;;22.16;39.13;102120.78;5029861;28;4232;-64
2022/05/18 06:00:13;;;;;;;;;;;;;;;22.15;38.91;102115.63;5033853;28;4253;-64
2022/05/18 06:02:40;;;;;;;;;;;;;;;22.15;39.11;102122.16;5036845;28;4361;-64
2022/05/18 06:05:09;;;;;;;;;;;;;;;22.15;39.33;102113.53;5033407;28;4048;-64
2022/05/18 06:07:35;;;;;;;;;;;;;;;22.14;40.55;102114.88;5036383;28;4274;-62
2022/05/18 06:10:02;;;;;;;;;;;;;;;22.16;40.99;102123.66;5034531;28;5461;-64
2022/05/18 06:12:32;;;;;;;;;;;;;;;22.16;41.43;102126.53;5031689;28;4316;-64
2022/05/18 06:15:43;;;;;;;;;;;;;;;22.15;41.65;102122.16;5027356;28;5342;-62
2022/05/18 06:18:10;;;;;;;;;;;;;;;22.15;41.38;102127.16;5034509;28;4205;-63
2022/05/18 06:20:45;;;;;;;;;;;;;;;22.16;41.67;102123.66;5037848;28;5755;-69
2022/05/18 06:23:11;;;;;;;;;;;;;;;22.17;41.75;102125.19;5034825;28;4065;-64
2022/05/18 06:25:37;;;;;;;;;;;;;;;22.18;41.99;102126.66;5030346;28;4570;-63
2022/05/18 06:28:04;;;;;;;;;;;;;;;22.18;42.36;102126.66;5035258;28;5588;-64
2022/05/18 06:30:30;;;;;;;;;;;;;;;22.18;42.57;102125.94;5034967;28;5186;-64
2022/05/18 06:32:57;;;;;;;;;;;;;;;22.18;42.56;102132.44;5036015;28;4227;-64
2022/05/18 06:35:23;;;;;;;;;;;;;;;22.20;42.63;102139.72;5033168;28;5851;-64
2022/05/18 06:37:50;;;;;;;;;;;;;;;22.20;42.99;102154.16;5036531;28;4212;-64
2022/05/18 06:40:17;;;;;;;;;;;;;;;22.20;43.15;102151.28;5035595;28;4120;-65
2022/05/18 06:42:44;;;;;;;;;;;;;;;22.21;42.98;102152.75;5036450;28;4872;-64
2022/05/18 06:45:11;;;;;;;;;;;;;;;22.20;43.33;102151.28;5052040;28;5050;-64
2022/05/18 06:47:38;;;;;;;;;;;;;;;22.21;43.29;102152.75;5035571;28;4195;-64
2022/05/18 06:50:04;;;;;;;;;;;;;;;22.21;43.61;102141.22;5036468;28;5303;-63
2022/05/18 06:52:31;;;;;;;;;;;;;;;22.21;43.68;102149.88;5036257;28;4161;-63
2022/05/18 06:54:57;;;;;;;;;;;;;;;22.21;43.68;102152.75;5034324;28;4223;-63
2022/05/18 06:57:28;;;;;;;;;;;;;;;22.21;43.98;102147.75;5035686;28;4236;-63
2022/05/18 06:59:54;;;;;;;;;;;;;;;22.22;43.88;102155.06;5033278;28;4201;-63
2022/05/18 07:02:21;;;;;;;;;;;;;;;22.22;43.91;102151.41;5035669;28;4404;-64
2022/05/18 07:04:47;;;;;;;;;;;;;;;22.22;44.28;102145.63;5035890;28;4901;-63
2022/05/18 07:07:16;;;;;;;;;;;;;;;22.23;44.08;102144.25;5035439;28;4310;-64
2022/05/18 07:09:43;;;;;;;;;;;;;;;22.23;44.15;102150.03;5033402;28;4207;-64
2022/05/18 07:12:09;;;;;;;;;;;;;;;22.23;44.40;102147.16;5035855;28;4216;-63
2022/05/18 07:14:36;;;;;;;;;;;;;;;22.23;44.45;102155.81;5035281;28;5246;-63
2022/05/18 07:17:02;;;;;;;;;;;;;;;22.22;44.56;102155.06;5034435;28;4235;-64
2022/05/18 07:19:30;;;;;;;;;;;;;;;22.23;44.41;102155.81;5034713;28;4173;-64
2022/05/18 07:21:56;;;;;;;;;;;;;;;22.24;44.40;102154.41;5034141;28;5316;-64
2022/05/18 07:24:23;;;;;;;;;;;;;;;22.24;44.49;102154.41;5029501;28;6383;-66
2022/05/18 07:26:49;;;;;;;;;;;;;;;22.24;44.91;102158.06;5031638;28;4223;-66
2022/05/18 07:29:16;;;;;;;;;;;;;;;22.23;44.71;102158.69;5034923;28;4155;-66
2022/05/18 07:34:27;;;;;;;;;;;;;;;22.23;44.95;102155.81;5032809;28;5449;-66
2022/05/18 07:36:54;;;;;;;;;;;;;;;22.24;44.77;102139.97;5034862;28;5348;-64
2022/05/18 07:39:20;;;;;;;;;;;;;;;22.25;44.56;102145.13;5034889;28;4145;-65
2022/05/18 07:41:46;;;;;;;;;;;;;;;22.26;44.72;102145.88;5033904;28;5725;-64
2022/05/18 07:44:13;;;;;;;;;;;;;;;22.27;45.06;102144.50;5036812;28;5504;-66
2022/05/18 07:46:39;;;;;;;;;;;;;;;22.27;44.95;102145.25;5035522;28;4024;-64
2022/05/18 07:49:06;;;;;;;;;;;;;;;22.28;45.22;102140.22;5035048;28;4063;-65
2022/05/18 07:51:32;;;;;;;;;;;;;;;22.28;45.13;102137.34;5032373;28;4215;-61
2022/05/18 07:53:59;;;;;;;;;;;;;;;22.28;45.18;102134.44;5031064;28;4230;-65
2022/05/18 07:56:25;;;;;;;;;;;;;;;22.25;45.17;102133.59;5035378;28;5302;-64
2022/05/18 07:58:52;;;;;;;;;;;;;;;22.25;44.37;102135.72;5034417;28;4317;-65
2022/05/18 08:01:18;;;;;;;;;;;;;;;22.22;44.09;102137.75;5032470;28;4325;-65
2022/05/18 08:03:45;;;;;;;;;;;;;;;22.21;44.30;102135.44;5033063;28;4052;-65
2022/05/18 08:06:11;;;;;;;;;;;;;;;22.20;43.76;102142.63;5033505;28;5287;-65
2022/05/18 08:08:38;;;;;;;;;;;;;;;22.16;43.53;102135.19;5034353;28;4075;-64
2022/05/18 08:16:34;;;;;;;;;;;;;;;22.13;41.72;102136.47;5032880;28;4239;-65
2022/05/18 08:19:01;;;;;;;;;;;;;;;22.12;41.28;102140.72;5031810;28;4065;-64
2022/05/18 08:21:28;;;;;;;;;;;;;;;22.14;41.35;102137.97;5035258;28;5410;-65
2022/05/18 08:23:54;;;;;;;;;;;;;;;22.15;41.46;102130.81;5040173;28;4221;-65
2022/05/18 08:26:23;;;;;;;;;;;;;;;22.17;41.57;102130.94;5037858;28;4178;-62
2022/05/18 08:28:49;;;;;;;;;;;;;;;22.20;41.73;102133.97;5038805;28;5390;-64
2022/05/18 08:31:17;;;;;;;;;;;;;;;22.21;42.11;102123.91;5036447;28;5639;-63
2022/05/18 08:33:44;;;;;;;;;;;;;;;22.22;42.39;102125.44;5039063;28;4305;-63
2022/05/18 08:36:10;;;;;;;;;;;;;;;22.23;42.65;102124.06;5039494;28;4131;-63
2022/05/18 08:38:37;;;;;;;;;;;;;;;22.22;42.66;102125.44;5038138;28;4145;-63
2022/05/18 08:41:08;;;;;;;;;;;;;;;22.22;42.74;102120.44;5036063;28;5294;-63
2022/05/18 08:43:34;;;;;;;;;;;;;;;22.22;43.07;102120.44;5040109;28;5138;-63
2022/05/18 08:46:15;;;;;;;;;;;;;;;22.23;43.46;102126.94;5038190;28;5280;-64
2022/05/18 08:48:45;;;;;;;;;;;;;;;22.23;43.50;102115.41;5039002;28;4160;-62
2022/05/18 08:51:16;;;;;;;;;;;;;;;22.25;43.72;102124.19;5039822;28;4213;-63
2022/05/18 08:54:21;;;;;;;;;;;;;;;22.25;43.65;102124.19;5037734;28;4587;-62
2022/05/18 08:56:47;;;;;;;;;;;;;;;22.25;43.90;102116.28;5039311;28;4072;-62
2022/05/18 08:59:14;;;;;;;;;;;;;;;22.25;43.81;102122.03;5037701;28;4217;-62
2022/05/18 09:01:42;;;;;;;;;;;;;;;22.26;43.85;102125.66;5037324;28;4197;-63
2022/05/18 09:04:22;;;;;;;;;;;;;;;22.27;44.19;102115.66;5039369;28;4182;-63
2022/05/18 09:07:04;;;;;;;;;;;;;;;22.26;44.02;102120.66;5038807;28;4121;-64
2022/05/18 09:12:15;;;;;;;;;;;;;;;22.27;44.12;102109.88;5036920;28;4229;-63
2022/05/18 09:14:42;;;;;;;;;;;;;;;22.27;44.23;102116.41;5036552;28;4367;-63
2022/05/18 09:17:13;;;;;;;;;;;;;;;22.27;44.19;102115.66;5037489;28;4122;-63
2022/05/18 09:19:46;;;;;;;;;;;;;;;22.26;44.15;102108.34;5036980;28;4145;-63
2022/05/18 09:22:16;;;;;;;;;;;;;;;22.28;44.16;102117.88;5037486;28;4211;-63
2022/05/18 09:25:01;;;;;;;;;;;;;;;22.28;44.46;102111.38;5035646;28;4278;-63
2022/05/18 09:27:38;;;;;;;;;;;;;;;22.28;44.52;102108.47;5035991;28;4351;-64
2022/05/18 09:30:14;;;;;;;;;;;;;;;22.28;44.57;102105.59;5036238;28;4243;-63
2022/05/18 09:32:46;;;;;;;;;;;;;;;22.29;44.31;102112.88;5036342;28;4213;-63
2022/05/18 09:35:13;;;;;;;;;;;;;;;22.29;44.63;102107.13;5036469;28;4151;-63
2022/05/18 09:37:49;;;;;;;;;;;;;;;22.29;44.77;102107.84;5035835;28;5343;-63
2022/05/18 09:40:20;;;;;;;;;;;;;;;22.30;44.84;102097.06;5035316;28;4217;-63
2022/05/18 09:42:48;;;;;;;;;;;;;;;22.31;44.66;102104.31;5036517;28;4339;-63
2022/05/18 09:45:16;;;;;;;;;;;;;;;22.30;44.65;102102.81;5038532;28;5294;-63
2022/05/18 09:47:45;;;;;;;;;;;;;;;22.30;44.86;102108.59;5035340;28;4149;-63
2022/05/18 09:50:12;;;;;;;;;;;;;;;22.30;44.76;102108.59;5035168;28;4244;-63
2022/05/18 09:52:38;;;;;;;;;;;;;;;22.32;44.82;102114.50;5036772;28;4889;-63
2022/05/18 09:55:06;;;;;;;;;;;;;;;22.31;44.81;102098.53;5035512;28;4048;-63
2022/05/18 09:57:38;;;;;;;;;;;;;;;22.31;44.74;102099.31;5025033;28;4170;-69
2022/05/18 10:00:09;;;;;;;;;;;;;;;22.31;45.24;102095.66;5029762;28;4445;-69
2022/05/18 10:08:11;;;;;;;;;;;;;;;22.32;45.20;102076.97;5032983;28;4476;-69
2022/05/18 10:10:38;;;;;;;;;;;;;;;22.34;45.41;102079.97;5031644;28;4194;-61
2022/05/18 10:13:12;;;;;;;;;;;;;;;22.34;45.29;102080.72;5033222;28;4287;-65
2022/05/18 10:16:03;;;;;;;;;;;;;;;22.34;45.50;102077.09;5034517;28;4229;-65
2022/05/18 10:18:36;;;;;;;;;;;;;;;22.34;45.38;102074.22;5036188;28;4263;-65
2022/05/18 10:21:09;;;;;;;;;;;;;;;22.34;45.47;102071.31;5035635;28;4276;-66
2022/05/18 10:23:55;;;;;;;;;;;;;;;22.33;45.61;102075.56;5037150;28;4156;-66
2022/05/18 10:26:42;;;;;;;;;;;;;;;22.33;45.57;102081.34;5035191;28;5371;-65
2022/05/18 10:29:11;;;;;;;;;;;;;;;22.34;45.40;102069.19;5034141;28;4292;-66
2022/05/18 10:31:40;;;;;;;;;;;;;;;22.34;45.60;102085.75;5036372;28;5455;-67
2022/05/18 10:34:08;;;;;;;;;;;;;;;22.36;45.94;102077.22;5033043;28;3986;-65
2022/05/18 10:36:35;;;;;;;;;;;;;;;22.36;46.00;102080.09;5037712;28;4260;-66
2022/05/18 10:39:01;;;;;;;;;;;;;;;22.38;46.33;102077.34;5028589;28;4257;-65
2022/05/18 10:41:40;;;;;;;;;;;;;;;22.38;46.32;102080.22;5033420;28;4221;-65
2022/05/18 10:44:19;;;;;;;;;;;;;;;22.37;46.44;102072.94;5030417;28;4304;-65
2022/05/18 10:46:46;;;;;;;;;;;;;;;22.38;46.33;102077.34;5032338;28;5216;-66
2022/05/18 10:49:32;;;;;;;;;;;;;;;22.38;46.52;102068.69;5034999;28;4081;-66
2022/05/18 10:52:08;;;;;;;;;;;;;;;22.39;46.63;102075.94;5031969;28;4208;-66
2022/05/18 10:54:35;;;;;;;;;;;;;;;22.39;47.04;102070.16;5033548;28;4180;-66
2022/05/18 10:57:15;;;;;;;;;;;;;;;22.40;47.20;102063.00;5032150;28;4307;-66
2022/05/18 10:59:44;;;;;;;;;;;;;;;22.40;47.55;102065.88;5035292;28;4203;-66
2022/05/18 11:02:17;;;;;;;;;;;;;;;22.41;47.45;102067.41;5033266;28;4263;-66
2022/05/18 11:04:52;;;;;;;;;;;;;;;22.40;47.58;102054.34;5033599;28;4890;-66
2022/05/18 11:07:21;;;;;;;;;;;;;;;22.41;47.71;102055.13;5032234;28;4304;-66
2022/05/18 11:09:48;;;;;;;;;;;;;;;22.42;47.96;102047.94;5035331;28;4061;-66
2022/05/18 11:12:17;;;;;;;;;;;;;;;22.42;48.06;102045.81;5034085;28;4173;-66
2022/05/18 11:15:00;;;;;;;;;;;;;;;22.42;48.47;102045.81;5031322;28;4166;-66
2022/05/18 11:17:45;;;;;;;;;;;;;;;22.42;48.75;102034.25;5033876;28;4165;-66
2022/05/18 11:20:20;;;;;;;;;;;;;;;22.45;48.79;102038.78;5035772;28;4130;-66
2022/05/18 11:23:07;;;;;;;;;;;;;;;22.46;49.02;102040.25;5036566;28;4181;-66
2022/05/18 11:25:36;;;;;;;;;;;;;;;22.46;49.20;102028.72;5032740;28;4221;-66
2022/05/18 11:28:28;;;;;;;;;;;;;;;22.45;49.19;102018.56;5033703;28;5312;-66
2022/05/18 11:31:14;;;;;;;;;;;;;;;22.47;49.40;102012.91;5033969;28;4240;-66
2022/05/18 11:33:46;;;;;;;;;;;;;;;22.47;49.28;102012.91;5033509;28;4158;-66
2022/05/18 11:36:23;;;;;;;;;;;;;;;22.46;49.08;102005.63;5035091;28;5238;-66
2022/05/18 11:39:10;;;;;;;;;;;;;;;22.48;49.12;101996.34;5034182;28;4169;-65
2022/05/18 11:41:48;;;;;;;;;;;;;;;22.47;49.09;101992.72;5034805;28;4274;-65
2022/05/18 11:44:22;;;;;;;;;;;;;;;22.48;48.82;101991.31;5034356;28;4143;-65
2022/05/18 11:47:07;;;;;;;;;;;;;;;22.51;48.85;101995.78;5032299;28;4516;-65
2022/05/18 11:49:37;;;;;;;;;;;;;;;22.50;48.92;101988.53;5035183;28;4329;-65
2022/05/18 11:52:20;;;;;;;;;;;;;;;22.51;48.90;101984.25;5033823;28;4225;-65
2022/05/18 11:54:51;;;;;;;;;;;;;;;22.52;49.10;101985.78;5040941;28;3973;-66
2022/05/18 11:57:33;;;;;;;;;;;;;;;22.53;49.16;101981.47;5034781;28;3995;-66
2022/05/18 12:00:07;;;;;;;;;;;;;;;22.54;49.50;101983.00;5034939;28;5157;-65
2022/05/18 12:02:48;;;;;;;;;;;;;;;22.56;49.58;101986.00;5032449;28;3999;-65
2022/05/18 12:05:21;;;;;;;;;;;;;;;22.54;49.20;101974.34;5034280;28;4185;-65
2022/05/18 12:07:57;;;;;;;;;;;;;;;22.57;49.16;101980.97;5032850;28;4114;-65
2022/05/18 12:10:25;;;;;;;;;;;;;;;22.58;49.09;101982.44;5034865;28;3965;-65
2022/05/18 12:12:56;;;;;;;;;;;;;;;22.57;48.95;101970.16;5035104;28;4168;-65
2022/05/18 12:15:40;;;;;;;;;;;;;;;22.58;48.96;101982.44;5034913;28;4028;-66
2022/05/18 12:18:08;;;;;;;;;;;;;;;22.57;48.89;101978.81;5033837;28;4044;-65
2022/05/18 12:20:37;;;;;;;;;;;;;;;22.58;48.83;101982.44;5033031;28;4293;-65
2022/05/18 12:23:05;;;;;;;;;;;;;;;22.58;48.27;101980.31;5034215;28;4221;-65
2022/05/18 12:25:32;;;;;;;;;;;;;;;22.58;48.05;101965.88;5039837;28;4226;-65
2022/05/18 12:27:58;;;;;;;;;;;;;;;22.59;48.19;101967.38;5034497;28;4357;-65
2022/05/18 12:30:25;;;;;;;;;;;;;;;22.62;48.01;101970.38;5034133;28;4177;-65
2022/05/18 12:32:53;;;;;;;;;;;;;;;22.63;48.08;101978.41;5032122;28;4254;-65
2022/05/18 12:35:33;;;;;;;;;;;;;;;22.67;47.86;101967.06;5031334;28;4141;-65
2022/05/18 12:38:02;;;;;;;;;;;;;;;22.65;47.88;101972.72;5030769;28;4185;-65
2022/05/18 12:40:33;;;;;;;;;;;;;;;22.66;48.07;101973.50;5033809;28;5283;-65
2022/05/18 12:43:02;;;;;;;;;;;;;;;22.67;48.04;101975.72;5034925;28;4228;-65
2022/05/18 12:45:30;;;;;;;;;;;;;;;22.66;48.23;101976.38;5032760;28;4281;-62
2022/05/18 12:48:09;;;;;;;;;;;;;;;22.70;48.09;101971.59;5032984;28;4171;-64
2022/05/18 12:50:36;;;;;;;;;;;;;;;22.69;48.15;101970.06;5027933;28;5186;-66
2022/05/18 12:53:03;;;;;;;;;;;;;;;22.71;47.94;101972.34;5028675;28;4322;-64
2022/05/18 12:55:35;;;;;;;;;;;;;;;22.70;48.36;101968.69;5033166;28;4210;-63
2022/05/18 12:58:08;;;;;;;;;;;;;;;22.71;48.30;101972.34;5024686;28;4263;-66
2022/05/18 13:00:38;;;;;;;;;;;;;;;22.71;48.46;101966.56;5031392;28;5535;-66
2022/05/18 13:03:07;;;;;;;;;;;;;;;22.72;48.17;101965.16;5029177;28;4455;-66
2022/05/18 13:05:35;;;;;;;;;;;;;;;22.73;48.30;101969.56;5034000;28;4149;-65
2022/05/18 13:08:17;;;;;;;;;;;;;;;22.73;48.32;101972.44;5029844;28;4311;-66
2022/05/18 13:11:02;;;;;;;;;;;;;;;22.74;48.47;101973.94;5034507;28;4211;-65
2022/05/18 13:13:33;;;;;;;;;;;;;;;22.77;48.25;101964.00;5036109;28;4198;-66
2022/05/18 13:15:59;;;;;;;;;;;;;;;22.76;48.34;101960.34;5038349;28;4182;-66
2022/05/18 13:18:31;;;;;;;;;;;;;;;22.78;48.44;101953.94;5036405;28;5301;-66